createdAt,value
2019-04-06T00:00:21.809Z,46.30
2019-04-06T00:01:21.986Z,46.10
2019-04-06T00:02:22.192Z,45.10
2019-04-06T00:03:22.378Z,40.40
2019-04-06T00:04:22.574Z,43.40
2019-04-06T00:05:22.759Z,42.30
2019-04-06T00:06:22.945Z,42.30
2019-04-06T00:07:23.126Z,40.90
2019-04-06T00:08:23.319Z,41.10
2019-04-06T00:09:23.492Z,41.80
2019-04-06T00:10:23.674Z,42.90
2019-04-06T00:11:23.855Z,42.80
2019-04-06T00:12:24.041Z,42.90
2019-04-06T00:13:24.229Z,46.60
2019-04-06T00:14:24.405Z,48.30
2019-04-06T00:15:24.596Z,50.20
2019-04-06T00:16:24.801Z,55.30
2019-04-06T00:17:24.961Z,55.10
2019-04-06T00:18:25.148Z,53.80
2019-04-06T00:19:25.328Z,55.00
2019-04-06T00:20:25.529Z,53.10
2019-04-06T00:21:25.703Z,51.20
2019-04-06T00:22:25.890Z,49.10
2019-04-06T00:23:26.069Z,48.30
2019-04-06T00:24:26.267Z,47.70
2019-04-06T00:25:26.468Z,52.60
2019-04-06T00:26:26.646Z,52.50
2019-04-06T00:27:26.827Z,51.60
2019-04-06T00:28:27.058Z,54.50
2019-04-06T00:29:27.194Z,54.30
2019-04-06T00:30:27.382Z,55.10
2019-04-06T00:31:27.563Z,56.30
2019-04-06T00:32:27.752Z,57.40
2019-04-06T00:33:27.934Z,56.60
2019-04-06T00:34:28.116Z,57.30
2019-04-06T00:35:28.295Z,59.80
2019-04-06T00:36:28.487Z,59.20
2019-04-06T00:37:28.677Z,60.40
2019-04-06T00:38:28.861Z,63.70
2019-04-06T00:39:29.045Z,62.70
2019-04-06T00:40:29.230Z,62.40
2019-04-06T00:41:29.415Z,63.20
2019-04-06T00:42:29.597Z,64.10
2019-04-06T00:43:29.780Z,64.90
2019-04-06T00:44:29.963Z,64.10
2019-04-06T00:45:30.158Z,62.10
2019-04-06T00:46:30.333Z,56.30
2019-04-06T00:47:30.514Z,54.70
2019-04-06T00:48:30.712Z,55.30
2019-04-06T00:49:30.881Z,58.20
2019-04-06T00:50:31.077Z,50.20
2019-04-06T00:51:31.255Z,57.40
2019-04-06T00:52:31.436Z,56.00
2019-04-06T00:53:31.618Z,55.10
2019-04-06T00:54:31.814Z,58.60
2019-04-06T00:55:31.982Z,61.00
2019-04-06T00:56:32.175Z,61.40
2019-04-06T00:57:32.371Z,63.90
2019-04-06T00:58:32.557Z,63.50
2019-04-06T00:59:32.733Z,67.50
2019-04-06T01:00:32.920Z,67.30
2019-04-06T01:01:33.094Z,71.30
2019-04-06T01:02:33.279Z,73.50
2019-04-06T01:03:33.466Z,75.80
2019-04-06T01:04:33.648Z,72.90
2019-04-06T01:05:33.854Z,69.50
2019-04-06T01:06:34.031Z,70.40
2019-04-06T01:07:34.201Z,69.20
2019-04-06T01:08:34.390Z,67.10
2019-04-06T01:09:34.565Z,68.90
2019-04-06T01:10:34.750Z,68.80
2019-04-06T01:11:34.942Z,65.90
2019-04-06T01:12:35.118Z,67.10
2019-04-06T01:13:35.345Z,63.80
2019-04-06T01:14:35.496Z,59.50
2019-04-06T01:15:35.685Z,58.30
2019-04-06T01:16:35.866Z,56.60
2019-04-06T01:17:36.047Z,55.10
2019-04-06T01:18:36.233Z,54.70
2019-04-06T01:19:36.441Z,53.90
2019-04-06T01:20:36.626Z,54.70
2019-04-06T01:21:36.808Z,55.00
2019-04-06T01:22:36.987Z,58.20
2019-04-06T01:23:37.184Z,58.90
2019-04-06T01:24:37.367Z,60.90
2019-04-06T01:25:37.551Z,64.90
2019-04-06T01:26:37.745Z,60.50
2019-04-06T01:27:37.928Z,56.50
2019-04-06T01:28:38.114Z,59.50
2019-04-06T01:29:38.296Z,59.40
2019-04-06T01:30:38.565Z,61.00
2019-04-06T01:31:38.679Z,56.90
2019-04-06T01:32:38.847Z,54.50
2019-04-06T01:33:39.080Z,57.00
2019-04-06T01:34:39.218Z,54.20
2019-04-06T01:35:39.402Z,53.40
2019-04-06T01:36:39.597Z,51.70
2019-04-06T01:37:39.778Z,52.20
2019-04-06T01:38:39.967Z,51.70
2019-04-06T01:39:40.153Z,51.80
2019-04-06T01:40:40.336Z,52.40
2019-04-06T01:41:40.528Z,53.60
2019-04-06T01:42:40.709Z,53.10
2019-04-06T01:43:40.894Z,54.90
2019-04-06T01:44:41.081Z,56.90
2019-04-06T01:45:41.261Z,59.30
2019-04-06T01:46:41.453Z,55.90
2019-04-06T01:47:41.629Z,57.10
2019-04-06T01:48:41.840Z,57.40
2019-04-06T01:49:41.998Z,59.00
2019-04-06T01:50:42.187Z,55.40
2019-04-06T01:51:42.365Z,54.70
2019-04-06T01:52:42.557Z,54.60
2019-04-06T01:53:42.738Z,56.80
2019-04-06T01:54:42.918Z,54.40
2019-04-06T01:55:43.210Z,53.90
2019-04-06T01:56:43.293Z,55.60
2019-04-06T01:57:43.476Z,55.80
2019-04-06T01:58:43.661Z,56.60
2019-04-06T01:59:43.975Z,57.50
2019-04-06T02:00:44.033Z,57.70
2019-04-06T02:01:44.217Z,58.60
2019-04-06T02:02:44.402Z,59.10
2019-04-06T02:03:44.585Z,54.80
2019-04-06T02:04:44.770Z,53.70
2019-04-06T02:05:44.948Z,51.70
2019-04-06T02:06:45.131Z,50.70
2019-04-06T02:07:45.316Z,45.70
2019-04-06T02:08:45.514Z,45.80
2019-04-06T02:09:45.694Z,45.90
2019-04-06T02:10:45.881Z,45.10
2019-04-06T02:11:46.087Z,46.30
2019-04-06T02:12:46.248Z,45.80
2019-04-06T02:13:46.472Z,46.70
2019-04-06T02:14:46.614Z,46.50
2019-04-06T02:15:46.806Z,45.10
2019-04-06T02:16:46.990Z,45.60
2019-04-06T02:17:47.224Z,46.50
2019-04-06T02:18:47.359Z,50.60
2019-04-06T02:19:47.586Z,57.70
2019-04-06T02:20:47.739Z,59.70
2019-04-06T02:21:47.916Z,69.20
2019-04-06T02:22:48.104Z,72.90
2019-04-06T02:23:48.282Z,75.10
2019-04-06T02:24:48.463Z,74.90
2019-04-06T02:25:48.649Z,76.40
2019-04-06T02:26:48.831Z,76.70
2019-04-06T02:27:49.014Z,77.90
2019-04-06T02:28:49.202Z,76.60
2019-04-06T02:29:49.387Z,69.70
2019-04-06T02:30:49.570Z,61.70
2019-04-06T02:31:49.782Z,57.80
2019-04-06T02:32:49.943Z,62.00
2019-04-06T02:33:50.127Z,70.00
2019-04-06T02:34:50.365Z,71.90
2019-04-06T02:35:50.501Z,74.70
2019-04-06T02:36:50.679Z,73.30
2019-04-06T02:37:50.867Z,74.50
2019-04-06T02:38:51.039Z,78.10
2019-04-06T02:39:51.219Z,78.20
2019-04-06T02:40:51.407Z,78.00
2019-04-06T02:41:51.589Z,73.90
2019-04-06T02:42:51.926Z,76.60
2019-04-06T02:43:51.951Z,74.00
2019-04-06T02:44:52.150Z,72.40
2019-04-06T02:45:52.410Z,74.80
2019-04-06T02:46:52.522Z,78.00
2019-04-06T02:47:52.701Z,76.50
2019-04-06T02:48:52.892Z,75.30
2019-04-06T02:49:53.159Z,76.80
2019-04-06T02:50:53.272Z,75.70
2019-04-06T02:51:53.466Z,76.50
2019-04-06T02:52:53.642Z,78.80
2019-04-06T02:53:53.825Z,78.10
2019-04-06T02:54:54.010Z,79.70
2019-04-06T02:55:54.194Z,80.40
2019-04-06T02:56:54.376Z,77.60
2019-04-06T02:57:54.560Z,79.90
2019-04-06T02:58:54.780Z,78.30
2019-04-06T02:59:54.936Z,79.90
2019-04-06T03:00:55.129Z,79.10
2019-04-06T03:01:55.305Z,79.10
2019-04-06T03:02:55.487Z,77.10
2019-04-06T03:03:55.680Z,75.00
2019-04-06T03:04:55.861Z,77.70
2019-04-06T03:05:56.049Z,79.40
2019-04-06T03:06:56.231Z,79.00
2019-04-06T03:07:56.438Z,79.50
2019-04-06T03:08:56.774Z,80.30
2019-04-06T03:09:56.794Z,77.90
2019-04-06T03:10:57.009Z,77.20
2019-04-06T03:11:57.290Z,75.90
2019-04-06T03:12:57.353Z,75.30
2019-04-06T03:13:57.532Z,79.00
2019-04-06T03:14:57.724Z,78.70
2019-04-06T03:15:58.619Z,80.10
2019-04-06T03:16:58.189Z,78.20
2019-04-06T03:17:58.239Z,82.60
2019-04-06T03:18:58.412Z,80.30
2019-04-06T03:19:58.602Z,78.00
2019-04-06T03:20:58.787Z,78.80
2019-04-06T03:21:58.977Z,80.40
2019-04-06T03:22:59.161Z,76.90
2019-04-06T03:23:59.342Z,79.00
2019-04-06T03:24:59.531Z,79.50
2019-04-06T03:25:59.711Z,78.90
2019-04-06T03:27:02.650Z,78.30
2019-04-06T03:28:00.092Z,78.20
2019-04-06T03:29:00.283Z,73.50
2019-04-06T03:30:00.476Z,69.70
2019-04-06T03:31:00.869Z,72.00
2019-04-06T03:32:00.850Z,77.50
2019-04-06T03:33:01.145Z,75.00
2019-04-06T03:34:01.259Z,77.40
2019-04-06T03:35:01.415Z,79.90
2019-04-06T03:36:01.588Z,75.80
2019-04-06T03:37:01.772Z,72.10
2019-04-06T03:38:01.954Z,71.40
2019-04-06T03:39:02.145Z,74.90
2019-04-06T03:40:02.336Z,75.50
2019-04-06T03:41:02.532Z,73.60
2019-04-06T03:42:02.818Z,72.10
2019-04-06T03:43:02.907Z,71.70
2019-04-06T03:44:03.080Z,72.90
2019-04-06T03:45:03.262Z,76.40
2019-04-06T03:46:03.445Z,76.00
2019-04-06T03:47:03.631Z,74.60
2019-04-06T03:48:03.817Z,75.10
2019-04-06T03:49:04.230Z,74.70
2019-04-06T03:50:04.183Z,76.90
2019-04-06T03:51:04.367Z,76.70
2019-04-06T03:52:04.554Z,76.30
2019-04-06T03:53:04.849Z,74.70
2019-04-06T03:54:04.924Z,76.90
2019-04-06T03:55:05.106Z,76.30
2019-04-06T03:56:05.531Z,75.10
2019-04-06T03:57:14.519Z,76.00
2019-04-06T03:58:05.661Z,77.60
2019-04-06T03:59:05.867Z,75.30
2019-04-06T04:00:06.043Z,72.30
2019-04-06T04:01:06.214Z,76.30
2019-04-06T04:02:06.398Z,76.80
2019-04-06T04:03:06.595Z,73.30
2019-04-06T04:04:06.771Z,74.30
2019-04-06T04:05:06.952Z,75.60
2019-04-06T04:06:07.137Z,74.20
2019-04-06T04:07:07.325Z,76.00
2019-04-06T04:08:07.550Z,74.90
2019-04-06T04:09:07.690Z,72.80
2019-04-06T04:10:07.875Z,75.90
2019-04-06T04:11:08.058Z,70.60
2019-04-06T04:12:08.250Z,74.70
2019-04-06T04:13:08.440Z,72.80
2019-04-06T04:14:08.611Z,72.00
2019-04-06T04:15:08.884Z,72.70
2019-04-06T04:16:08.987Z,71.70
2019-04-06T04:17:09.360Z,74.60
2019-04-06T04:18:09.367Z,73.60
2019-04-06T04:19:09.557Z,71.50
2019-04-06T04:20:09.747Z,74.40
2019-04-06T04:21:09.928Z,75.90
2019-04-06T04:22:10.188Z,74.10
2019-04-06T04:23:10.298Z,75.40
2019-04-06T04:24:10.489Z,74.30
2019-04-06T04:25:10.659Z,74.20
2019-04-06T04:26:10.878Z,72.70
2019-04-06T04:27:11.043Z,73.90
2019-04-06T04:28:11.229Z,73.90
2019-04-06T04:29:11.427Z,71.80
2019-04-06T04:30:11.595Z,74.30
2019-04-06T04:31:11.775Z,71.90
2019-04-06T04:32:11.959Z,75.30
2019-04-06T04:33:12.147Z,75.00
2019-04-06T04:34:12.331Z,70.80
2019-04-06T04:35:12.521Z,74.20
2019-04-06T04:36:12.702Z,75.30
2019-04-06T04:37:12.950Z,72.70
2019-04-06T04:38:13.069Z,73.50
2019-04-06T04:39:13.258Z,74.40
2019-04-06T04:40:13.441Z,71.30
2019-04-06T04:41:13.627Z,70.80
2019-04-06T04:42:13.814Z,74.90
2019-04-06T04:43:13.997Z,71.60
2019-04-06T04:44:14.207Z,72.80
2019-04-06T04:45:14.573Z,74.00
2019-04-06T04:46:14.557Z,73.60
2019-04-06T04:47:14.739Z,73.60
2019-04-06T04:48:14.923Z,72.70
2019-04-06T04:49:15.109Z,71.20
2019-04-06T04:50:15.299Z,73.10
2019-04-06T04:51:15.488Z,73.40
2019-04-06T04:52:15.671Z,73.00
2019-04-06T04:53:15.858Z,70.20
2019-04-06T04:54:16.093Z,74.60
2019-04-06T04:55:16.231Z,69.40
2019-04-06T04:56:16.559Z,74.80
2019-04-06T04:57:16.605Z,72.30
2019-04-06T04:58:16.790Z,73.10
2019-04-06T04:59:16.982Z,71.30
2019-04-06T05:00:17.165Z,72.10
2019-04-06T05:01:17.352Z,71.40
2019-04-06T05:02:17.539Z,70.30
2019-04-06T05:03:17.892Z,71.00
2019-04-06T05:04:17.909Z,71.60
2019-04-06T05:05:18.101Z,71.60
2019-04-06T05:06:18.287Z,69.90
2019-04-06T05:07:18.476Z,72.40
2019-04-06T05:08:18.659Z,69.40
2019-04-06T05:09:18.851Z,70.10
2019-04-06T05:10:19.102Z,69.70
2019-04-06T05:11:19.223Z,69.80
2019-04-06T05:12:19.409Z,70.20
2019-04-06T05:13:19.590Z,72.30
2019-04-06T05:14:19.778Z,70.80
2019-04-06T05:15:19.987Z,69.40
2019-04-06T05:16:20.189Z,63.10
2019-04-06T05:17:20.376Z,61.80
2019-04-06T05:18:20.568Z,61.50
2019-04-06T05:19:20.758Z,63.60
2019-04-06T05:20:20.958Z,63.40
2019-04-06T05:21:21.155Z,62.40
2019-04-06T05:22:21.472Z,59.90
2019-04-06T05:23:21.529Z,60.80
2019-04-06T05:24:21.867Z,58.40
2019-04-06T05:25:22.000Z,59.80
2019-04-06T05:26:22.159Z,60.40
2019-04-06T05:27:22.264Z,60.90
2019-04-06T05:28:22.457Z,62.80
2019-04-06T05:29:22.642Z,63.20
2019-04-06T05:30:22.831Z,66.10
2019-04-06T05:31:23.015Z,66.70
2019-04-06T05:32:23.197Z,65.60
2019-04-06T05:33:23.388Z,66.00
2019-04-06T05:34:23.575Z,65.10
2019-04-06T05:35:23.909Z,63.80
2019-04-06T05:36:23.955Z,66.10
2019-04-06T05:37:24.139Z,66.90
2019-04-06T05:38:24.332Z,69.90
2019-04-06T05:39:24.531Z,67.20
2019-04-06T05:40:24.713Z,69.10
2019-04-06T05:41:24.899Z,65.30
2019-04-06T05:42:25.086Z,66.50
2019-04-06T05:43:25.276Z,67.40
2019-04-06T05:44:25.459Z,67.40
2019-04-06T05:45:25.642Z,66.40
2019-04-06T05:46:25.830Z,65.70
2019-04-06T05:47:26.013Z,63.90
2019-04-06T05:48:26.200Z,65.60
2019-04-06T05:49:26.386Z,64.40
2019-04-06T05:50:26.573Z,66.70
2019-04-06T05:51:26.757Z,65.70
2019-04-06T05:52:27.102Z,64.40
2019-04-06T05:53:27.141Z,65.50
2019-04-06T05:54:27.337Z,64.90
2019-04-06T05:55:27.521Z,63.40
2019-04-06T05:56:27.705Z,65.70
2019-04-06T05:57:31.605Z,63.10
2019-04-06T05:58:28.242Z,65.40
2019-04-06T05:59:28.299Z,64.90
2019-04-06T06:00:28.781Z,65.40
2019-04-06T06:01:28.677Z,63.50
2019-04-06T06:02:28.819Z,64.30
2019-04-06T06:03:29.015Z,63.30
2019-04-06T06:04:29.208Z,63.40
2019-04-06T06:05:29.394Z,64.30
2019-04-06T06:06:29.606Z,61.80
2019-04-06T06:07:29.769Z,62.60
2019-04-06T06:08:30.604Z,64.10
2019-04-06T06:09:30.156Z,62.80
2019-04-06T06:10:30.338Z,63.60
2019-04-06T06:11:30.676Z,61.30
2019-04-06T06:12:30.716Z,61.50
2019-04-06T06:13:30.906Z,62.50
2019-04-06T06:14:31.093Z,61.50
2019-04-06T06:15:31.275Z,63.10
2019-04-06T06:16:31.529Z,63.40
2019-04-06T06:17:31.649Z,62.80
2019-04-06T06:18:31.837Z,61.50
2019-04-06T06:19:32.025Z,62.50
2019-04-06T06:20:32.359Z,64.10
2019-04-06T06:21:32.391Z,63.70
2019-04-06T06:22:32.569Z,61.70
2019-04-06T06:23:32.754Z,60.60
2019-04-06T06:24:34.737Z,60.30
2019-04-06T06:25:33.132Z,60.80
2019-04-06T06:26:33.330Z,61.30
2019-04-06T06:27:33.759Z,61.70
2019-04-06T06:28:33.844Z,62.40
2019-04-06T06:29:33.893Z,61.70
2019-04-06T06:30:34.133Z,60.60
2019-04-06T06:31:34.259Z,60.40
2019-04-06T06:32:34.443Z,60.80
2019-04-06T06:33:34.632Z,61.20
2019-04-06T06:34:34.824Z,59.50
2019-04-06T06:35:35.009Z,59.70
2019-04-06T06:36:35.425Z,60.10
2019-04-06T06:37:35.387Z,59.40
2019-04-06T06:38:35.573Z,60.00
2019-04-06T06:39:35.753Z,61.00
2019-04-06T06:40:35.957Z,60.90
2019-04-06T06:41:36.138Z,62.30
2019-04-06T06:42:36.317Z,62.30
2019-04-06T06:43:36.512Z,62.20
2019-04-06T06:44:36.741Z,63.60
2019-04-06T06:45:36.931Z,63.00
2019-04-06T06:46:37.064Z,62.00
2019-04-06T06:47:37.251Z,61.20
2019-04-06T06:48:37.630Z,62.10
2019-04-06T06:49:37.755Z,62.30
2019-04-06T06:50:37.831Z,61.60
2019-04-06T06:51:38.028Z,60.90
2019-04-06T06:52:38.250Z,62.30
2019-04-06T06:53:38.415Z,61.10
2019-04-06T06:54:38.622Z,60.90
2019-04-06T06:55:38.965Z,59.20
2019-04-06T06:56:38.976Z,58.50
2019-04-06T06:57:39.505Z,60.10
2019-04-06T06:58:39.354Z,60.40
2019-04-06T06:59:39.534Z,57.60
2019-04-06T07:00:39.718Z,59.40
2019-04-06T07:01:39.910Z,59.10
2019-04-06T07:02:40.101Z,59.40
2019-04-06T07:03:40.282Z,57.30
2019-04-06T07:04:40.466Z,54.90
2019-04-06T07:05:40.662Z,55.00
2019-04-06T07:06:40.856Z,58.20
2019-04-06T07:07:41.040Z,59.00
2019-04-06T07:08:41.286Z,58.30
2019-04-06T07:09:41.417Z,60.30
2019-04-06T07:10:41.612Z,55.20
2019-04-06T07:11:41.804Z,56.30
2019-04-06T07:12:42.004Z,56.50
2019-04-06T07:13:42.200Z,58.70
2019-04-06T07:14:42.375Z,57.70
2019-04-06T07:15:43.460Z,57.70
2019-04-06T07:16:42.748Z,58.60
2019-04-06T07:17:42.943Z,56.70
2019-04-06T07:18:43.133Z,60.10
2019-04-06T07:19:43.336Z,56.60
2019-04-06T07:20:43.537Z,59.20
2019-04-06T07:21:43.719Z,58.30
2019-04-06T07:22:43.913Z,58.30
2019-04-06T07:23:44.093Z,57.40
2019-04-06T07:24:44.278Z,58.10
2019-04-06T07:25:51.805Z,56.40
2019-04-06T07:26:44.665Z,55.00
2019-04-06T07:27:44.852Z,54.90
2019-04-06T07:28:45.039Z,52.90
2019-04-06T07:29:45.233Z,52.30
2019-04-06T07:30:45.535Z,51.70
2019-04-06T07:31:45.604Z,53.70
2019-04-06T07:32:45.821Z,53.20
2019-04-06T07:33:45.977Z,51.30
2019-04-06T07:34:46.164Z,52.50
2019-04-06T07:35:46.352Z,52.90
2019-04-06T07:36:46.703Z,51.90
2019-04-06T07:37:46.729Z,53.60
2019-04-06T07:38:46.932Z,52.20
2019-04-06T07:39:47.125Z,50.60
2019-04-06T07:40:47.317Z,49.90
2019-04-06T07:41:47.511Z,51.70
2019-04-06T07:42:47.904Z,51.00
2019-04-06T07:43:48.116Z,51.40
2019-04-06T07:44:48.090Z,50.90
2019-04-06T07:45:48.273Z,51.10
2019-04-06T07:46:48.464Z,50.00
2019-04-06T07:47:48.668Z,51.50
2019-04-06T07:48:48.873Z,51.30
2019-04-06T07:49:49.046Z,50.80
2019-04-06T07:50:49.370Z,50.90
2019-04-06T07:51:49.427Z,50.10
2019-04-06T07:52:49.863Z,50.20
2019-04-06T07:53:49.814Z,50.30
2019-04-06T07:54:50.001Z,50.10
2019-04-06T07:55:50.356Z,50.00
2019-04-06T07:56:50.408Z,49.30
2019-04-06T07:57:50.822Z,51.50
2019-04-06T07:58:50.796Z,49.90
2019-04-06T07:59:50.989Z,50.20
2019-04-06T08:00:51.351Z,50.70
2019-04-06T08:01:51.371Z,50.30
2019-04-06T08:02:51.549Z,48.10
2019-04-06T08:03:51.739Z,48.80
2019-04-06T08:04:51.929Z,50.10
2019-04-06T08:05:52.314Z,48.50
2019-04-06T08:06:52.539Z,51.10
2019-04-06T08:07:52.475Z,48.80
2019-04-06T08:08:52.680Z,48.60
2019-04-06T08:09:53.029Z,47.70
2019-04-06T08:10:53.070Z,49.10
2019-04-06T08:11:53.291Z,50.70
2019-04-06T08:12:53.456Z,50.90
2019-04-06T08:13:53.880Z,49.50
2019-04-06T08:14:53.846Z,48.60
2019-04-06T08:15:54.320Z,48.60
2019-04-06T08:16:54.360Z,47.30
2019-04-06T08:17:54.415Z,47.20
2019-04-06T08:18:54.598Z,46.60
2019-04-06T08:19:54.797Z,48.00
2019-04-06T08:20:54.993Z,45.90
2019-04-06T08:21:55.177Z,46.50
2019-04-06T08:22:55.428Z,46.90
2019-04-06T08:23:55.566Z,43.60
2019-04-06T08:24:55.779Z,42.00
2019-04-06T08:25:56.361Z,42.90
2019-04-06T08:26:56.177Z,41.50
2019-04-06T08:27:56.387Z,40.50
2019-04-06T08:29:01.521Z,39.50
2019-04-06T08:29:56.790Z,36.80
2019-04-06T08:30:56.975Z,36.20
2019-04-06T08:31:57.174Z,36.20
2019-04-06T08:32:57.591Z,34.90
2019-04-06T08:33:57.572Z,34.60
2019-04-06T08:34:57.883Z,34.30
2019-04-06T08:35:57.990Z,32.80
2019-04-06T08:36:58.160Z,33.50
2019-04-06T08:37:58.359Z,33.70
2019-04-06T08:38:58.575Z,33.00
2019-04-06T08:39:58.763Z,31.20
2019-04-06T08:40:58.974Z,31.00
2019-04-06T08:41:59.158Z,29.60
2019-04-06T08:42:59.356Z,28.50
2019-04-06T08:43:59.557Z,27.50
2019-04-06T08:45:00.012Z,28.90
2019-04-06T08:45:59.960Z,28.90
2019-04-06T08:47:00.167Z,29.30
2019-04-06T08:48:00.360Z,28.30
2019-04-06T08:49:00.563Z,25.80
2019-04-06T08:50:00.768Z,23.70
2019-04-06T08:51:01.117Z,24.30
2019-04-06T08:52:01.177Z,24.90
2019-04-06T08:53:01.383Z,24.60
2019-04-06T08:54:01.601Z,23.60
2019-04-06T08:55:01.902Z,22.60
2019-04-06T08:56:02.003Z,22.50
2019-04-06T08:57:02.202Z,21.60
2019-04-06T08:58:02.403Z,21.50
2019-04-06T08:59:11.536Z,21.80
2019-04-06T09:00:02.810Z,22.20
2019-04-06T09:01:03.013Z,21.40
2019-04-06T09:02:03.251Z,19.20
2019-04-06T09:03:03.856Z,18.70
2019-04-06T09:04:03.631Z,19.60
2019-04-06T09:05:03.918Z,21.00
2019-04-06T09:06:04.016Z,19.10
2019-04-06T09:07:04.224Z,19.30
2019-04-06T09:08:04.424Z,20.30
2019-04-06T09:09:04.632Z,20.70
2019-04-06T09:10:04.845Z,20.20
2019-04-06T09:11:05.046Z,22.00
2019-04-06T09:12:05.246Z,21.00
2019-04-06T09:13:05.459Z,22.70
2019-04-06T09:14:05.915Z,20.50
2019-04-06T09:15:05.877Z,20.00
2019-04-06T09:16:06.309Z,20.00
2019-04-06T09:17:06.277Z,21.40
2019-04-06T09:18:06.492Z,22.10
2019-04-06T09:19:06.723Z,22.60
2019-04-06T09:20:06.912Z,20.80
2019-04-06T09:21:07.111Z,21.80
2019-04-06T09:22:07.316Z,23.30
2019-04-06T09:23:07.521Z,22.90
2019-04-06T09:24:07.725Z,22.30
2019-04-06T09:25:07.933Z,21.80
2019-04-06T09:26:08.131Z,22.20
2019-04-06T09:27:08.331Z,22.30
2019-04-06T09:28:08.533Z,20.80
2019-04-06T09:29:08.819Z,21.30
2019-04-06T09:30:09.134Z,20.40
2019-04-06T09:31:09.153Z,20.20
2019-04-06T09:32:09.596Z,18.90
2019-04-06T09:33:09.560Z,20.60
2019-04-06T09:34:09.777Z,20.60
2019-04-06T09:35:10.187Z,21.60
2019-04-06T09:36:10.181Z,20.60
2019-04-06T09:37:10.383Z,22.20
2019-04-06T09:38:10.588Z,21.40
2019-04-06T09:39:10.794Z,22.40
2019-04-06T09:40:10.980Z,20.80
2019-04-06T09:41:11.189Z,21.30
2019-04-06T09:42:11.392Z,20.90
2019-04-06T09:43:11.596Z,20.10
2019-04-06T09:44:11.799Z,20.30
2019-04-06T09:45:12.008Z,20.20
2019-04-06T09:46:12.204Z,21.00
2019-04-06T09:47:12.398Z,20.70
2019-04-06T09:48:12.819Z,20.60
2019-04-06T09:49:12.800Z,20.70
2019-04-06T09:50:13.006Z,21.20
2019-04-06T09:51:13.213Z,20.30
2019-04-06T09:52:13.412Z,20.90
2019-04-06T09:53:13.619Z,18.90
2019-04-06T09:54:13.817Z,19.40
2019-04-06T09:55:14.147Z,18.90
2019-04-06T09:56:14.232Z,18.40
2019-04-06T09:57:14.436Z,17.50
2019-04-06T09:58:14.637Z,19.20
2019-04-06T09:59:14.831Z,18.30
2019-04-06T10:00:15.146Z,19.10
2019-04-06T10:01:15.236Z,18.90
2019-04-06T10:02:15.682Z,18.60
2019-04-06T10:03:15.650Z,19.30
2019-04-06T10:04:15.842Z,18.90
2019-04-06T10:05:16.050Z,19.10
2019-04-06T10:06:16.262Z,19.00
2019-04-06T10:07:16.450Z,18.70
2019-04-06T10:08:16.660Z,18.90
2019-04-06T10:09:16.861Z,19.50
2019-04-06T10:10:17.196Z,18.90
2019-04-06T10:11:17.264Z,16.30
2019-04-06T10:12:17.822Z,16.30
2019-04-06T10:13:17.667Z,16.00
2019-04-06T10:14:17.875Z,16.80
2019-04-06T10:15:18.074Z,17.20
2019-04-06T10:16:18.280Z,17.30
2019-04-06T10:17:18.484Z,17.10
2019-04-06T10:18:18.678Z,18.40
2019-04-06T10:19:18.974Z,17.20
2019-04-06T10:20:19.084Z,16.40
2019-04-06T10:21:19.508Z,16.50
2019-04-06T10:22:19.580Z,16.70
2019-04-06T10:23:19.691Z,16.50
2019-04-06T10:24:19.888Z,15.20
2019-04-06T10:25:20.097Z,15.90
2019-04-06T10:26:20.526Z,15.60
2019-04-06T10:27:20.507Z,15.30
2019-04-06T10:28:20.707Z,15.10
2019-04-06T10:29:20.912Z,15.00
2019-04-06T10:30:21.123Z,15.20
2019-04-06T10:31:21.317Z,14.50
2019-04-06T10:32:21.516Z,15.40
2019-04-06T10:33:21.724Z,15.60
2019-04-06T10:34:22.091Z,15.50
2019-04-06T10:35:22.130Z,16.80
2019-04-06T10:36:22.547Z,16.20
2019-04-06T10:37:22.538Z,17.00
2019-04-06T10:38:22.735Z,14.80
2019-04-06T10:39:23.056Z,13.70
2019-04-06T10:40:23.306Z,13.30
2019-04-06T10:41:23.334Z,12.60
2019-04-06T10:42:23.867Z,13.00
2019-04-06T10:43:23.865Z,13.20
2019-04-06T10:44:23.941Z,12.90
2019-04-06T10:45:24.136Z,12.70
2019-04-06T10:46:24.341Z,13.00
2019-04-06T10:47:24.539Z,13.10
2019-04-06T10:48:24.744Z,13.50
2019-04-06T10:49:24.960Z,12.40
2019-04-06T10:50:25.148Z,12.50
2019-04-06T10:51:25.345Z,12.70
2019-04-06T10:52:25.555Z,12.90
2019-04-06T10:53:26.078Z,12.10
2019-04-06T10:54:25.958Z,13.10
2019-04-06T10:55:26.159Z,12.60
2019-04-06T10:56:26.356Z,12.10
2019-04-06T10:57:26.565Z,11.90
2019-04-06T10:58:26.763Z,11.90
2019-04-06T10:59:26.970Z,12.40
2019-04-06T11:00:27.189Z,12.50
2019-04-06T11:01:27.397Z,12.50
2019-04-06T11:02:27.783Z,12.50
2019-04-06T11:03:27.801Z,12.40
2019-04-06T11:04:28.002Z,13.10
2019-04-06T11:05:28.211Z,12.00
2019-04-06T11:06:28.417Z,10.70
2019-04-06T11:07:28.620Z,10.80
2019-04-06T11:08:28.987Z,11.20
2019-04-06T11:09:29.289Z,10.60
2019-04-06T11:10:29.225Z,10.60
2019-04-06T11:11:29.424Z,10.70
2019-04-06T11:12:29.629Z,10.70
2019-04-06T11:13:29.832Z,11.00
2019-04-06T11:14:30.249Z,10.90
2019-04-06T11:15:30.432Z,11.00
2019-04-06T11:16:30.442Z,10.70
2019-04-06T11:17:30.642Z,12.10
2019-04-06T11:18:30.845Z,11.90
2019-04-06T11:19:31.043Z,11.30
2019-04-06T11:20:31.241Z,10.70
2019-04-06T11:21:31.445Z,10.30
2019-04-06T11:22:31.642Z,10.70
2019-04-06T11:23:32.083Z,10.30
2019-04-06T11:24:32.041Z,10.70
2019-04-06T11:25:32.237Z,11.00
2019-04-06T11:26:32.444Z,10.80
2019-04-06T11:27:32.650Z,11.50
2019-04-06T11:28:32.853Z,10.40
2019-04-06T11:29:33.087Z,10.30
2019-04-06T11:30:33.252Z,10.90
2019-04-06T11:31:33.450Z,9.10
2019-04-06T11:32:33.651Z,9.20
2019-04-06T11:33:33.849Z,9.40
2019-04-06T11:34:34.048Z,9.90
2019-04-06T11:35:34.561Z,9.50
2019-04-06T11:36:34.457Z,9.40
2019-04-06T11:37:34.659Z,9.70
2019-04-06T11:38:34.857Z,9.20
2019-04-06T11:39:35.066Z,8.60
2019-04-06T11:40:35.265Z,8.80
2019-04-06T11:41:35.473Z,9.00
2019-04-06T11:42:35.795Z,8.70
2019-04-06T11:43:35.866Z,8.50
2019-04-06T11:44:36.156Z,7.90
2019-04-06T11:45:36.280Z,7.80
2019-04-06T11:46:36.472Z,8.50
2019-04-06T11:47:36.702Z,8.90
2019-04-06T11:48:36.895Z,8.70
2019-04-06T11:49:37.198Z,8.10
2019-04-06T11:50:37.283Z,9.20
2019-04-06T11:51:37.596Z,9.50
2019-04-06T11:52:37.697Z,9.80
2019-04-06T11:53:37.901Z,9.30
2019-04-06T11:54:38.104Z,9.30
2019-04-06T11:55:38.382Z,9.40
2019-04-06T11:56:38.506Z,9.20
2019-04-06T11:57:38.707Z,9.10
2019-04-06T11:58:38.936Z,9.00
2019-04-06T11:59:39.153Z,9.10
2019-04-06T12:00:39.302Z,8.80
2019-04-06T12:01:39.504Z,9.90
2019-04-06T12:02:39.900Z,9.50
2019-04-06T12:03:39.911Z,9.60
2019-04-06T12:04:40.336Z,9.50
2019-04-06T12:05:40.325Z,9.90
2019-04-06T12:06:40.506Z,10.10
2019-04-06T12:07:41.073Z,9.70
2019-04-06T12:08:40.896Z,10.60
2019-04-06T12:09:41.098Z,10.00
2019-04-06T12:10:41.344Z,10.00
2019-04-06T12:11:41.514Z,9.80
2019-04-06T12:12:41.652Z,10.10
2019-04-06T12:13:41.861Z,10.10
2019-04-06T12:14:42.044Z,9.70
2019-04-06T12:15:42.248Z,9.30
2019-04-06T12:16:42.456Z,9.40
2019-04-06T12:17:42.653Z,10.20
2019-04-06T12:18:42.909Z,9.90
2019-04-06T12:19:43.062Z,9.30
2019-04-06T12:20:43.255Z,10.40
2019-04-06T12:21:43.440Z,10.00
2019-04-06T12:22:43.693Z,10.40
2019-04-06T12:23:43.848Z,10.40
2019-04-06T12:24:44.047Z,10.80
2019-04-06T12:25:44.245Z,10.70
2019-04-06T12:26:44.436Z,11.10
2019-04-06T12:27:44.638Z,10.10
2019-04-06T12:28:44.857Z,12.10
2019-04-06T12:29:45.237Z,14.10
2019-04-06T12:30:45.223Z,14.80
2019-04-06T12:31:45.485Z,14.60
2019-04-06T12:32:45.644Z,15.90
2019-04-06T12:33:45.837Z,15.30
2019-04-06T12:34:46.116Z,14.50
2019-04-06T12:35:46.219Z,15.70
2019-04-06T12:36:46.547Z,14.70
2019-04-06T12:37:46.628Z,15.40
2019-04-06T12:38:46.874Z,15.50
2019-04-06T12:39:53.025Z,16.50
2019-04-06T12:40:47.208Z,16.60
2019-04-06T12:41:47.400Z,16.80
2019-04-06T12:42:47.589Z,17.30
2019-04-06T12:43:47.785Z,17.00
2019-04-06T12:44:47.983Z,16.30
2019-04-06T12:45:48.214Z,16.80
2019-04-06T12:46:48.608Z,17.30
2019-04-06T12:47:48.583Z,15.10
2019-04-06T12:48:49.643Z,13.90
2019-04-06T12:49:49.270Z,15.80
2019-04-06T12:50:49.261Z,15.40
2019-04-06T12:51:49.349Z,16.10
2019-04-06T12:52:49.559Z,15.70
2019-04-06T12:53:49.747Z,15.70
2019-04-06T12:54:49.974Z,16.10
2019-04-06T12:55:50.531Z,16.30
2019-04-06T12:56:50.740Z,15.80